createdAt,value
2017-07-04T00:00:39.674Z,0
2017-07-04T00:01:20.264Z,0
2017-07-04T00:02:00.757Z,0
2017-07-04T00:02:41.274Z,0
2017-07-04T00:03:21.753Z,0
2017-07-04T00:04:02.377Z,0
2017-07-04T00:04:42.825Z,0
2017-07-04T00:05:23.470Z,0
2017-07-04T00:06:03.934Z,0
2017-07-04T00:06:44.411Z,0
2017-07-04T00:07:24.947Z,0
2017-07-04T00:08:05.457Z,0
2017-07-04T00:08:45.980Z,0
2017-07-04T00:09:26.458Z,0
2017-07-04T00:10:06.957Z,0
2017-07-04T00:10:47.428Z,0
2017-07-04T00:11:27.944Z,0
2017-07-04T00:12:08.459Z,0
2017-07-04T00:12:48.969Z,0
2017-07-04T00:13:29.470Z,0
2017-07-04T00:14:09.953Z,0
2017-07-04T00:14:50.407Z,0
2017-07-04T00:15:30.950Z,0
2017-07-04T00:16:11.479Z,0
2017-07-04T00:16:52.267Z,0
2017-07-04T00:17:32.789Z,0
2017-07-04T00:18:13.271Z,0
2017-07-04T00:18:53.735Z,0
2017-07-04T00:19:34.233Z,0
2017-07-04T00:20:14.739Z,0
2017-07-04T00:20:55.230Z,0
2017-07-04T00:21:35.735Z,0
2017-07-04T00:22:16.231Z,0
2017-07-04T00:22:56.722Z,0
2017-07-04T00:23:37.180Z,0
2017-07-04T00:24:17.713Z,0
2017-07-04T00:24:58.193Z,0
2017-07-04T00:25:38.711Z,0
2017-07-04T00:26:19.220Z,0
2017-07-04T00:26:59.711Z,0
2017-07-04T00:27:40.247Z,0
2017-07-04T00:28:20.753Z,0
2017-07-04T00:29:01.245Z,0
2017-07-04T00:29:41.801Z,0
2017-07-04T00:30:22.326Z,0
2017-07-04T00:31:02.831Z,0
2017-07-04T00:31:43.375Z,0
2017-07-04T00:32:23.912Z,0
2017-07-04T00:33:04.374Z,0
2017-07-04T00:33:44.871Z,0
2017-07-04T00:34:25.367Z,0
2017-07-04T00:35:05.860Z,0
2017-07-04T00:35:46.362Z,0
2017-07-04T00:36:26.831Z,0
2017-07-04T00:37:07.357Z,0
2017-07-04T00:37:47.820Z,0
2017-07-04T00:38:28.389Z,0
2017-07-04T00:39:08.877Z,0
2017-07-04T00:39:49.388Z,0
2017-07-04T00:40:29.846Z,0
2017-07-04T00:41:10.352Z,0
2017-07-04T00:41:50.855Z,0
2017-07-04T00:42:31.364Z,0
2017-07-04T00:43:11.870Z,0
2017-07-04T00:43:52.575Z,0
2017-07-04T00:44:33.087Z,0
2017-07-04T00:45:13.580Z,0
2017-07-04T00:45:54.067Z,0
2017-07-04T00:46:34.589Z,0
2017-07-04T00:47:15.084Z,0
2017-07-04T00:47:55.552Z,0
2017-07-04T00:48:36.062Z,0
2017-07-04T00:49:16.554Z,0
2017-07-04T00:49:57.071Z,0
2017-07-04T00:50:37.678Z,0
2017-07-04T00:51:18.173Z,0
2017-07-04T00:51:58.644Z,0
2017-07-04T00:52:39.165Z,0
2017-07-04T00:53:19.663Z,0
2017-07-04T00:54:00.183Z,0
2017-07-04T00:54:40.689Z,0
2017-07-04T00:55:21.198Z,0
2017-07-04T00:56:01.675Z,0
2017-07-04T00:56:42.167Z,0
2017-07-04T00:57:22.766Z,0
2017-07-04T00:58:03.238Z,0
2017-07-04T00:58:43.747Z,0
2017-07-04T00:59:24.263Z,0
2017-07-04T01:00:04.889Z,0
2017-07-04T01:00:45.386Z,0
2017-07-04T01:01:25.878Z,0
2017-07-04T01:02:06.357Z,0
2017-07-04T01:02:46.861Z,0
2017-07-04T01:03:27.332Z,0
2017-07-04T01:04:07.970Z,0
2017-07-04T01:04:48.358Z,0
2017-07-04T01:05:28.865Z,0
2017-07-04T01:06:09.450Z,0
2017-07-04T01:06:49.907Z,0
2017-07-04T01:07:30.426Z,0
2017-07-04T01:08:10.904Z,0
2017-07-04T01:08:51.407Z,0
2017-07-04T01:09:31.910Z,0
2017-07-04T01:10:12.441Z,0
2017-07-04T01:10:52.947Z,0
2017-07-04T01:11:33.480Z,0
2017-07-04T01:12:13.940Z,0
2017-07-04T01:12:54.444Z,0
2017-07-04T01:13:34.947Z,0
2017-07-04T01:14:15.412Z,0
2017-07-04T01:14:55.931Z,0
2017-07-04T01:15:36.431Z,0
2017-07-04T01:16:16.906Z,0
2017-07-04T01:16:57.430Z,0
2017-07-04T01:17:37.923Z,0
2017-07-04T01:18:18.431Z,0
2017-07-04T01:18:58.965Z,0
2017-07-04T01:19:39.456Z,0
2017-07-04T01:20:19.933Z,0
2017-07-04T01:21:00.407Z,0
2017-07-04T01:21:40.924Z,0
2017-07-04T01:22:21.430Z,0
2017-07-04T01:23:01.961Z,0
2017-07-04T01:23:42.460Z,0
2017-07-04T01:24:22.960Z,0
2017-07-04T01:25:03.453Z,0
2017-07-04T01:25:44.152Z,0
2017-07-04T01:26:24.676Z,0
2017-07-04T01:27:05.156Z,0
2017-07-04T01:27:45.667Z,0
2017-07-04T01:28:26.212Z,0
2017-07-04T01:29:06.719Z,0
2017-07-04T01:29:47.211Z,0
2017-07-04T01:30:27.700Z,0
2017-07-04T01:31:08.172Z,0
2017-07-04T01:31:48.688Z,0
2017-07-04T01:32:29.310Z,0
2017-07-04T01:33:09.885Z,0
2017-07-04T01:33:50.326Z,0
2017-07-04T01:34:30.845Z,0
2017-07-04T01:35:11.330Z,0
2017-07-04T01:35:51.889Z,0
2017-07-04T01:36:32.417Z,0
2017-07-04T01:37:12.884Z,0
2017-07-04T01:37:53.455Z,0
2017-07-04T01:38:33.932Z,0
2017-07-04T01:39:14.446Z,0
2017-07-04T01:39:55.137Z,0
2017-07-04T01:40:35.603Z,0
2017-07-04T01:41:16.149Z,0
2017-07-04T01:41:56.634Z,0
2017-07-04T01:42:37.150Z,0
2017-07-04T01:43:17.664Z,0
2017-07-04T01:43:58.127Z,0
2017-07-04T01:44:38.630Z,0
2017-07-04T01:45:19.133Z,0
2017-07-04T01:45:59.643Z,0
2017-07-04T01:46:40.136Z,0
2017-07-04T01:47:20.659Z,0
2017-07-04T01:48:01.167Z,0
2017-07-04T01:48:41.690Z,0
2017-07-04T01:49:22.189Z,0
2017-07-04T01:50:02.701Z,0
2017-07-04T01:50:43.214Z,0
2017-07-04T01:51:23.714Z,0
2017-07-04T01:52:04.213Z,0
2017-07-04T01:52:44.723Z,0
2017-07-04T01:53:25.261Z,0
2017-07-04T01:54:05.793Z,0
2017-07-04T01:54:46.293Z,0
2017-07-04T01:55:26.787Z,0
2017-07-04T01:56:07.275Z,0
2017-07-04T01:56:47.750Z,0
2017-07-04T01:57:28.281Z,0
2017-07-04T01:58:08.759Z,0
2017-07-04T01:58:49.298Z,0
2017-07-04T01:59:29.790Z,0
2017-07-04T02:00:10.355Z,0
2017-07-04T02:00:51.054Z,0
2017-07-04T02:01:31.499Z,0
2017-07-04T02:02:11.988Z,0
2017-07-04T02:02:52.484Z,0
2017-07-04T02:03:32.993Z,0
2017-07-04T02:04:13.524Z,0
2017-07-04T02:04:53.983Z,0
2017-07-04T02:05:34.478Z,0
2017-07-04T02:06:14.972Z,0
2017-07-04T02:06:55.466Z,0
2017-07-04T02:07:35.922Z,0
2017-07-04T02:08:16.444Z,0
2017-07-04T02:08:56.938Z,0
2017-07-04T02:09:37.414Z,0
2017-07-04T02:10:17.973Z,0
2017-07-04T02:10:58.465Z,0
2017-07-04T02:11:38.982Z,0
2017-07-04T02:12:19.476Z,0
2017-07-04T02:12:59.959Z,0
2017-07-04T02:13:40.470Z,0
2017-07-04T02:14:21.027Z,0
2017-07-04T02:15:01.483Z,0
2017-07-04T02:15:41.983Z,0
2017-07-04T02:16:22.496Z,0
2017-07-04T02:17:02.992Z,0
2017-07-04T02:17:43.482Z,0
2017-07-04T02:18:23.969Z,0
2017-07-04T02:19:04.502Z,0
2017-07-04T02:19:44.989Z,0
2017-07-04T02:20:25.484Z,0
2017-07-04T02:21:05.969Z,0
2017-07-04T02:21:46.603Z,0
2017-07-04T02:22:27.101Z,0
2017-07-04T02:23:07.618Z,0
2017-07-04T02:23:48.137Z,0
2017-07-04T02:24:28.646Z,0
2017-07-04T02:25:09.184Z,0
2017-07-04T02:25:49.647Z,0
2017-07-04T02:26:30.172Z,0
2017-07-04T02:27:10.661Z,0
2017-07-04T02:27:51.166Z,0
2017-07-04T02:28:31.767Z,0
2017-07-04T02:29:12.252Z,0
2017-07-04T02:29:52.709Z,0
2017-07-04T02:30:33.183Z,0
2017-07-04T02:31:13.672Z,0
2017-07-04T02:31:54.172Z,0
2017-07-04T02:32:34.657Z,0
2017-07-04T02:33:15.175Z,0
2017-07-04T02:33:55.667Z,0
2017-07-04T02:34:36.145Z,0
2017-07-04T02:35:16.632Z,0
2017-07-04T02:35:57.158Z,0
2017-07-04T02:36:37.683Z,0
2017-07-04T02:37:18.165Z,0
2017-07-04T02:37:58.683Z,0
2017-07-04T02:38:39.144Z,0
2017-07-04T02:39:19.630Z,0
2017-07-04T02:40:00.137Z,0
2017-07-04T02:40:40.631Z,0
2017-07-04T02:41:21.233Z,0
2017-07-04T02:42:01.608Z,0
2017-07-04T02:42:42.113Z,0
2017-07-04T02:43:22.776Z,0
2017-07-04T02:44:03.148Z,0
2017-07-04T02:44:43.691Z,0
2017-07-04T02:45:24.166Z,0
2017-07-04T02:46:04.671Z,0
2017-07-04T02:46:45.137Z,0
2017-07-04T02:47:25.622Z,0
2017-07-04T02:48:06.124Z,0
2017-07-04T02:48:46.641Z,0
2017-07-04T02:49:27.137Z,0
2017-07-04T02:50:07.644Z,0
2017-07-04T02:50:48.243Z,0
2017-07-04T02:51:28.875Z,0
2017-07-04T02:52:09.381Z,0
2017-07-04T02:52:49.884Z,0
2017-07-04T02:53:30.363Z,0
2017-07-04T02:54:10.850Z,0
2017-07-04T02:54:51.353Z,0
2017-07-04T02:55:31.863Z,0
2017-07-04T02:56:12.381Z,0
2017-07-04T02:56:52.888Z,0
2017-07-04T02:57:33.368Z,0
2017-07-04T02:58:13.926Z,0
2017-07-04T02:58:54.393Z,0
2017-07-04T02:59:34.910Z,0
2017-07-04T03:00:15.395Z,0
2017-07-04T03:00:55.930Z,0
2017-07-04T03:01:36.405Z,0
2017-07-04T03:02:16.879Z,0
2017-07-04T03:02:57.376Z,0
2017-07-04T03:03:37.871Z,0
2017-07-04T03:04:18.421Z,0
2017-07-04T03:04:58.893Z,0
2017-07-04T03:05:39.370Z,0
2017-07-04T03:06:19.883Z,0
2017-07-04T03:07:00.381Z,0
2017-07-04T03:07:40.844Z,0
2017-07-04T03:08:21.398Z,0
2017-07-04T03:09:01.914Z,0
2017-07-04T03:09:42.403Z,0
2017-07-04T03:10:22.867Z,0
2017-07-04T03:11:03.346Z,0
2017-07-04T03:11:44.034Z,0
2017-07-04T03:12:24.561Z,0
2017-07-04T03:13:05.040Z,0
2017-07-04T03:13:45.562Z,0
2017-07-04T03:14:26.067Z,0
2017-07-04T03:15:06.512Z,0
2017-07-04T03:15:46.991Z,0
2017-07-04T03:16:27.508Z,0
2017-07-04T03:17:08.013Z,0
2017-07-04T03:17:48.539Z,0
2017-07-04T03:18:29.123Z,0
2017-07-04T03:19:09.607Z,0
2017-07-04T03:19:50.095Z,0
2017-07-04T03:20:30.605Z,0
2017-07-04T03:21:11.109Z,0
2017-07-04T03:21:51.604Z,0
2017-07-04T03:22:32.064Z,0
2017-07-04T03:23:12.560Z,0
2017-07-04T03:23:53.039Z,0
2017-07-04T03:24:33.560Z,0
2017-07-04T03:25:14.149Z,0
2017-07-04T03:25:54.608Z,0
2017-07-04T03:26:35.117Z,0
2017-07-04T03:27:15.629Z,0
2017-07-04T03:27:56.101Z,0
2017-07-04T03:28:36.616Z,0
2017-07-04T03:29:17.091Z,0
2017-07-04T03:29:57.605Z,0
2017-07-04T03:30:38.067Z,0
2017-07-04T03:31:18.585Z,0
2017-07-04T03:31:59.107Z,0
2017-07-04T03:32:39.713Z,0
2017-07-04T03:33:20.225Z,0
2017-07-04T03:34:00.729Z,0
2017-07-04T03:34:41.211Z,0
2017-07-04T03:35:21.745Z,0
2017-07-04T03:36:02.266Z,0
2017-07-04T03:36:42.691Z,0
2017-07-04T03:37:23.236Z,0
2017-07-04T03:38:03.715Z,0
2017-07-04T03:38:44.163Z,0
2017-07-04T03:39:24.654Z,0
2017-07-04T03:40:05.295Z,0
2017-07-04T03:40:45.742Z,0
2017-07-04T03:41:26.230Z,0
2017-07-04T03:42:06.718Z,0
2017-07-04T03:42:47.230Z,0
2017-07-04T03:43:27.747Z,0
2017-07-04T03:44:08.257Z,0
2017-07-04T03:44:48.940Z,0
2017-07-04T03:45:29.401Z,0
2017-07-04T03:46:09.936Z,5
2017-07-04T03:46:50.422Z,5
2017-07-04T03:47:30.910Z,5
2017-07-04T03:48:11.409Z,5
2017-07-04T03:48:51.932Z,5
2017-07-04T03:49:32.395Z,5
2017-07-04T03:50:12.876Z,5
2017-07-04T03:50:53.394Z,5
2017-07-04T03:51:33.864Z,5
2017-07-04T03:52:14.364Z,5
2017-07-04T03:52:54.915Z,5
2017-07-04T03:53:35.466Z,5
2017-07-04T03:54:15.946Z,5
2017-07-04T03:54:56.419Z,5
2017-07-04T03:55:36.922Z,5
2017-07-04T03:56:17.447Z,5
2017-07-04T03:56:57.932Z,5
2017-07-04T03:57:38.428Z,5
2017-07-04T03:58:18.907Z,5
2017-07-04T03:58:59.403Z,5
2017-07-04T03:59:39.939Z,5
2017-07-04T04:00:20.477Z,5
2017-07-04T04:01:01.166Z,5
2017-07-04T04:01:41.781Z,10
2017-07-04T04:02:22.281Z,10
2017-07-04T04:03:02.756Z,10
2017-07-04T04:03:43.228Z,10
2017-07-04T04:04:23.765Z,10
2017-07-04T04:05:04.372Z,10
2017-07-04T04:05:44.915Z,10
2017-07-04T04:06:25.423Z,10
2017-07-04T04:07:05.933Z,10
2017-07-04T04:07:46.591Z,10
2017-07-04T04:08:27.071Z,10
2017-07-04T04:09:07.561Z,10
2017-07-04T04:09:48.038Z,10
2017-07-04T04:10:28.547Z,10
2017-07-04T04:11:09.031Z,10
2017-07-04T04:11:49.542Z,10
2017-07-04T04:12:30.124Z,10
2017-07-04T04:13:10.607Z,10
2017-07-04T04:13:51.100Z,10
2017-07-04T04:16:29.409Z,15
2017-07-04T04:17:09.940Z,15
2017-07-04T04:17:50.451Z,15
2017-07-04T04:18:30.978Z,15
2017-07-04T04:19:11.508Z,15
2017-07-04T04:19:52.021Z,15
2017-07-04T04:20:32.538Z,15
2017-07-04T04:21:13.027Z,15
2017-07-04T04:21:53.566Z,15
2017-07-04T04:22:34.050Z,15
2017-07-04T04:23:14.508Z,15
2017-07-04T04:23:55.038Z,15
2017-07-04T04:24:35.517Z,15
2017-07-04T04:25:15.988Z,15
2017-07-04T04:25:56.503Z,15
2017-07-04T04:26:37.122Z,15
2017-07-04T04:27:17.532Z,15
2017-07-04T04:27:58.059Z,15
2017-07-04T04:28:38.515Z,15
2017-07-04T04:29:18.998Z,15
2017-07-04T04:29:59.482Z,15
2017-07-04T04:30:39.987Z,15
2017-07-04T04:31:20.457Z,15
2017-07-04T04:32:00.985Z,15
2017-07-04T04:32:41.435Z,15
2017-07-04T04:33:21.978Z,15
2017-07-04T04:34:02.460Z,15
2017-07-04T04:34:42.950Z,15
2017-07-04T04:35:23.457Z,20
2017-07-04T04:36:03.934Z,20
2017-07-04T04:36:44.438Z,20
2017-07-04T04:37:24.935Z,20
2017-07-04T04:38:05.439Z,20
2017-07-04T04:38:45.925Z,20
2017-07-04T04:39:26.449Z,20
2017-07-04T04:40:07.213Z,20
2017-07-04T04:40:47.734Z,20
2017-07-04T04:41:28.244Z,20
2017-07-04T04:42:08.703Z,20
2017-07-04T04:42:49.229Z,20
2017-07-04T04:43:29.694Z,20
2017-07-04T04:44:10.237Z,20
2017-07-04T04:44:50.705Z,20
2017-07-04T04:45:31.234Z,25
2017-07-04T04:46:11.708Z,25
2017-07-04T04:46:52.229Z,25
2017-07-04T04:47:32.723Z,25
2017-07-04T04:48:13.233Z,25
2017-07-04T04:48:53.692Z,25
2017-07-04T04:49:34.252Z,25
2017-07-04T04:50:14.735Z,25
2017-07-04T04:50:55.228Z,25
2017-07-04T04:51:35.720Z,25
2017-07-04T04:52:16.228Z,25
2017-07-04T04:52:56.723Z,25
2017-07-04T04:53:37.230Z,25
2017-07-04T04:54:17.735Z,25
2017-07-04T04:54:58.244Z,25
2017-07-04T04:55:38.752Z,25
2017-07-04T04:56:19.247Z,25
2017-07-04T04:56:59.729Z,25
2017-07-04T04:57:40.259Z,25
2017-07-04T04:58:20.753Z,25
2017-07-04T04:59:01.248Z,25
2017-07-04T04:59:41.738Z,30
2017-07-04T05:00:22.275Z,30
2017-07-04T05:01:02.803Z,30
2017-07-04T05:01:43.279Z,30
2017-07-04T05:02:23.928Z,30
2017-07-04T05:03:04.444Z,30
2017-07-04T05:03:44.952Z,30
2017-07-04T05:04:25.391Z,30
2017-07-04T05:05:05.906Z,30
2017-07-04T05:05:46.368Z,30
2017-07-04T05:06:26.899Z,30
2017-07-04T05:07:07.360Z,30
2017-07-04T05:07:47.873Z,30
2017-07-04T05:08:28.384Z,35
2017-07-04T05:09:08.982Z,35
2017-07-04T05:09:49.505Z,35
2017-07-04T05:10:30.110Z,35
2017-07-04T05:11:10.535Z,40
2017-07-04T05:11:51.019Z,40
2017-07-04T05:12:31.495Z,40
2017-07-04T05:13:12.071Z,40
2017-07-04T05:13:52.563Z,45
2017-07-04T05:14:33.222Z,45
2017-07-04T05:15:13.762Z,50
2017-07-04T05:15:54.424Z,50
2017-07-04T05:16:34.954Z,55
2017-07-04T05:17:15.457Z,55
2017-07-04T05:17:55.962Z,55
2017-07-04T05:18:36.441Z,55
2017-07-04T05:19:16.940Z,60
2017-07-04T05:19:57.439Z,60
2017-07-04T05:20:37.909Z,65
2017-07-04T05:21:18.908Z,65
2017-07-04T05:21:59.478Z,65
2017-07-04T05:22:40.091Z,65
2017-07-04T05:23:20.599Z,70
2017-07-04T05:24:01.057Z,70
2017-07-04T05:24:41.662Z,70
2017-07-04T05:25:22.067Z,70
2017-07-04T05:26:02.564Z,70
2017-07-04T05:26:43.221Z,70
2017-07-04T05:27:23.716Z,70
2017-07-04T05:28:04.220Z,70
2017-07-04T05:28:44.711Z,70
2017-07-04T05:29:25.334Z,70
2017-07-04T05:30:05.791Z,75
2017-07-04T05:30:46.307Z,75
2017-07-04T05:31:26.790Z,75
2017-07-04T05:32:07.278Z,80
2017-07-04T05:32:47.973Z,80
2017-07-04T05:33:36.056Z,80
2017-07-04T05:34:14.016Z,80
2017-07-04T05:34:54.521Z,85
2017-07-04T05:35:35.047Z,90
2017-07-04T05:36:15.568Z,90
2017-07-04T05:36:56.038Z,95
2017-07-04T05:37:36.569Z,100
2017-07-04T05:38:17.072Z,100
2017-07-04T05:38:57.567Z,105
2017-07-04T05:39:38.056Z,105
2017-07-04T05:40:18.572Z,110
2017-07-04T05:40:59.038Z,115
2017-07-04T05:41:39.533Z,120
2017-07-04T05:42:20.051Z,125
2017-07-04T05:43:00.636Z,125
2017-07-04T05:43:41.157Z,130
2017-07-04T05:44:21.633Z,135
2017-07-04T05:45:02.120Z,135
2017-07-04T05:45:42.678Z,140
2017-07-04T05:46:23.168Z,145
2017-07-04T05:47:03.647Z,145
2017-07-04T05:47:44.193Z,145
2017-07-04T05:48:24.716Z,145
2017-07-04T05:49:05.210Z,140
2017-07-04T05:49:45.717Z,140
2017-07-04T05:50:26.193Z,135
2017-07-04T05:51:06.698Z,135
2017-07-04T05:51:47.170Z,135
2017-07-04T05:52:27.696Z,135
2017-07-04T05:53:08.209Z,135
2017-07-04T05:53:48.660Z,135
2017-07-04T05:54:29.149Z,135
2017-07-04T05:55:09.699Z,140
2017-07-04T05:55:50.200Z,135
2017-07-04T05:56:30.678Z,135
2017-07-04T05:57:11.208Z,140
2017-07-04T05:57:51.678Z,145
2017-07-04T05:58:32.180Z,150
2017-07-04T05:59:12.626Z,150
2017-07-04T05:59:53.146Z,155
2017-07-04T06:00:33.686Z,155
2017-07-04T06:01:14.182Z,160
2017-07-04T06:01:54.718Z,160
2017-07-04T06:02:35.182Z,165
2017-07-04T06:03:15.735Z,160
2017-07-04T06:03:56.202Z,160
2017-07-04T06:04:36.694Z,160
2017-07-04T06:05:17.229Z,160
2017-07-04T06:05:57.736Z,160
2017-07-04T06:06:38.195Z,160
2017-07-04T06:07:18.725Z,160
2017-07-04T06:07:59.206Z,160
2017-07-04T06:08:39.728Z,165
2017-07-04T06:09:20.207Z,165
2017-07-04T06:10:00.724Z,165
2017-07-04T06:10:41.244Z,160
2017-07-04T06:11:21.822Z,155
2017-07-04T06:12:02.218Z,155
2017-07-04T06:12:42.706Z,155
2017-07-04T06:13:23.209Z,155
2017-07-04T06:14:03.695Z,155
2017-07-04T06:14:44.195Z,155
2017-07-04T06:15:24.723Z,155
2017-07-04T06:16:05.235Z,165
2017-07-04T06:16:45.725Z,165
2017-07-04T06:17:26.222Z,170
2017-07-04T06:18:06.734Z,185
2017-07-04T06:18:47.295Z,205
2017-07-04T06:19:27.847Z,250
2017-07-04T06:20:08.329Z,240
2017-07-04T06:20:48.990Z,260
2017-07-04T06:21:29.500Z,355
2017-07-04T06:22:09.952Z,420
2017-07-04T06:22:50.492Z,290
2017-07-04T06:23:31.058Z,360
2017-07-04T06:24:11.503Z,400
2017-07-04T06:24:52.009Z,450
2017-07-04T06:25:32.498Z,460
2017-07-04T06:26:13.013Z,460
2017-07-04T06:26:53.512Z,455
2017-07-04T06:27:34.004Z,445
2017-07-04T06:28:14.494Z,425
2017-07-04T06:28:54.984Z,405
2017-07-04T06:29:35.520Z,385
2017-07-04T06:30:16.002Z,375
2017-07-04T06:30:56.463Z,375
2017-07-04T06:31:36.948Z,380
2017-07-04T06:32:17.548Z,375
2017-07-04T06:32:58.287Z,375
2017-07-04T06:33:38.795Z,375
2017-07-04T06:34:19.275Z,370
2017-07-04T06:34:59.801Z,365
2017-07-04T06:35:40.291Z,370
2017-07-04T06:36:20.807Z,370
2017-07-04T06:37:01.279Z,370
2017-07-04T06:37:41.790Z,375
2017-07-04T06:38:22.322Z,380
2017-07-04T06:39:02.800Z,380
2017-07-04T06:39:43.307Z,385
2017-07-04T06:40:23.795Z,390
2017-07-04T06:41:04.340Z,390
2017-07-04T06:41:44.815Z,400
2017-07-04T06:42:25.347Z,405
2017-07-04T06:43:05.851Z,410
2017-07-04T06:43:46.340Z,420
2017-07-04T06:44:26.815Z,415
2017-07-04T06:45:07.342Z,410
2017-07-04T06:45:47.841Z,385
2017-07-04T06:46:28.448Z,365
2017-07-04T06:47:08.946Z,360
2017-07-04T06:47:49.458Z,365
2017-07-04T06:48:30.002Z,365
2017-07-04T06:49:10.492Z,355
2017-07-04T06:49:50.963Z,355
2017-07-04T06:50:31.460Z,355
2017-07-04T06:51:11.957Z,355
2017-07-04T06:51:52.490Z,350
2017-07-04T06:52:32.982Z,345
2017-07-04T06:53:13.519Z,345
2017-07-04T06:53:54.053Z,345
2017-07-04T06:54:34.513Z,340
2017-07-04T06:55:15.216Z,340
2017-07-04T06:55:55.528Z,340
2017-07-04T06:56:36.009Z,340
2017-07-04T06:57:16.552Z,340
2017-07-04T06:57:57.089Z,340
2017-07-04T06:58:37.641Z,340
2017-07-04T06:59:18.208Z,335
2017-07-04T06:59:58.697Z,340
2017-07-04T07:00:39.215Z,335
2017-07-04T07:01:19.688Z,330
2017-07-04T07:02:00.236Z,330
2017-07-04T07:02:40.802Z,330
2017-07-04T07:03:21.278Z,330
2017-07-04T07:04:01.790Z,325
2017-07-04T07:04:42.301Z,325
2017-07-04T07:05:22.787Z,330
2017-07-04T07:06:03.303Z,330
2017-07-04T07:06:43.748Z,330
2017-07-04T07:07:24.344Z,330
2017-07-04T07:08:04.823Z,330
2017-07-04T07:10:18.042Z,330
2017-07-04T07:10:58.568Z,330
2017-07-04T07:11:39.095Z,330
2017-07-04T07:12:19.652Z,330
2017-07-04T07:13:00.154Z,330
2017-07-04T07:13:40.681Z,335
2017-07-04T07:14:21.197Z,340
2017-07-04T07:15:01.722Z,350
2017-07-04T07:15:42.269Z,350
2017-07-04T07:16:22.742Z,355
2017-07-04T07:17:03.278Z,360
2017-07-04T07:17:43.807Z,375
2017-07-04T07:18:24.324Z,390
2017-07-04T07:19:04.881Z,405
2017-07-04T07:19:45.364Z,415
2017-07-04T07:20:25.934Z,425
2017-07-04T07:21:06.436Z,430
2017-07-04T07:21:46.964Z,435
2017-07-04T07:22:27.471Z,430
2017-07-04T07:23:07.921Z,420
2017-07-04T07:23:48.458Z,410
2017-07-04T07:24:28.998Z,395
2017-07-04T07:25:09.584Z,390
2017-07-04T07:25:50.179Z,380
2017-07-04T07:26:30.609Z,380
2017-07-04T07:27:11.073Z,385
2017-07-04T07:27:51.630Z,400
2017-07-04T07:28:32.077Z,410
2017-07-04T07:29:12.577Z,395
2017-07-04T07:29:53.105Z,425
2017-07-04T07:30:33.615Z,430
2017-07-04T07:31:14.120Z,435
2017-07-04T07:31:54.628Z,425
2017-07-04T07:32:35.125Z,425
2017-07-04T07:33:15.668Z,425
2017-07-04T07:33:56.159Z,420
2017-07-04T07:34:36.718Z,325
2017-07-04T07:35:17.223Z,360
2017-07-04T07:35:57.768Z,375
2017-07-04T07:36:38.222Z,300
2017-07-04T07:37:18.786Z,315
2017-07-04T07:37:59.230Z,345
2017-07-04T07:38:39.724Z,325
2017-07-04T07:39:20.195Z,230
2017-07-04T07:40:00.716Z,215
2017-07-04T07:40:41.240Z,200
2017-07-04T07:41:21.759Z,285
2017-07-04T07:42:02.296Z,275
2017-07-04T07:42:42.799Z,295
2017-07-04T07:43:23.301Z,305
2017-07-04T07:44:03.785Z,290
2017-07-04T07:44:44.297Z,290
2017-07-04T07:45:24.821Z,300
2017-07-04T07:46:05.307Z,295
2017-07-04T07:46:45.810Z,250
2017-07-04T07:47:26.342Z,295
2017-07-04T07:48:06.817Z,295
2017-07-04T07:48:47.531Z,300
2017-07-04T07:49:27.876Z,295
2017-07-04T07:50:08.397Z,290
2017-07-04T07:50:48.854Z,285
2017-07-04T07:51:29.355Z,275
2017-07-04T07:52:09.873Z,270
2017-07-04T07:52:50.390Z,265
2017-07-04T07:53:30.897Z,270
2017-07-04T07:54:11.402Z,270
2017-07-04T07:54:52.017Z,265
2017-07-04T07:55:32.436Z,265
2017-07-04T07:56:12.892Z,265
2017-07-04T07:56:53.416Z,260
2017-07-04T07:57:33.918Z,260
2017-07-04T07:58:14.403Z,260
2017-07-04T07:58:54.906Z,255
2017-07-04T07:59:35.361Z,255
2017-07-04T08:00:15.866Z,250
2017-07-04T08:00:56.361Z,250
2017-07-04T08:01:36.963Z,250
2017-07-04T08:02:17.404Z,250
2017-07-04T08:02:57.914Z,250
2017-07-04T08:03:38.414Z,250
2017-07-04T08:04:18.904Z,250
2017-07-04T08:04:59.440Z,250
2017-07-04T08:05:39.962Z,245
2017-07-04T08:06:20.512Z,245
2017-07-04T08:07:00.995Z,245
2017-07-04T08:07:41.477Z,240
2017-07-04T08:08:22.022Z,240
2017-07-04T08:09:02.543Z,240
2017-07-04T08:09:43.064Z,235
2017-07-04T08:10:23.604Z,235
2017-07-04T08:11:04.109Z,235
2017-07-04T08:11:44.652Z,235
2017-07-04T08:12:25.159Z,230
2017-07-04T08:13:05.792Z,230
2017-07-04T08:13:46.209Z,230
2017-07-04T08:14:26.744Z,225
2017-07-04T08:15:07.252Z,225
2017-07-04T08:15:47.731Z,225
2017-07-04T08:16:28.301Z,220
2017-07-04T08:17:08.763Z,225
2017-07-04T08:17:49.289Z,220
2017-07-04T08:18:29.758Z,215
2017-07-04T08:19:10.274Z,215
2017-07-04T08:19:50.755Z,215
2017-07-04T08:20:31.260Z,215
2017-07-04T08:21:13.732Z,215
2017-07-04T08:21:54.247Z,210
2017-07-04T08:22:34.731Z,210
2017-07-04T08:23:15.255Z,210
2017-07-04T08:23:55.778Z,210
2017-07-04T08:24:36.305Z,205
2017-07-04T08:25:16.826Z,205
2017-07-04T08:25:57.396Z,205
2017-07-04T08:26:37.890Z,205
2017-07-04T08:27:18.331Z,205
2017-07-04T08:27:58.832Z,205
2017-07-04T08:28:39.370Z,205
2017-07-04T08:29:19.890Z,205
2017-07-04T08:30:00.445Z,200
2017-07-04T08:30:40.949Z,195
2017-07-04T08:31:21.496Z,190
2017-07-04T08:32:01.973Z,190
2017-07-04T08:32:42.507Z,185
2017-07-04T08:33:22.974Z,180
2017-07-04T08:34:03.657Z,180
2017-07-04T08:34:44.244Z,175
2017-07-04T08:35:24.705Z,175
2017-07-04T08:36:05.193Z,175
2017-07-04T08:36:45.729Z,175
2017-07-04T08:37:26.215Z,175
2017-07-04T08:38:06.732Z,175
2017-07-04T08:38:47.233Z,175
2017-07-04T08:39:27.760Z,165
2017-07-04T08:40:08.260Z,165
2017-07-04T08:40:48.762Z,185
2017-07-04T08:41:29.286Z,185
2017-07-04T08:42:09.755Z,185
2017-07-04T08:42:50.250Z,185
2017-07-04T08:43:30.763Z,185
2017-07-04T08:44:11.254Z,185
2017-07-04T08:44:51.756Z,185
2017-07-04T08:45:32.228Z,185
2017-07-04T08:46:12.907Z,190
2017-07-04T08:46:53.410Z,185
2017-07-04T08:47:33.916Z,190
2017-07-04T08:48:14.435Z,190
2017-07-04T08:48:54.937Z,190
2017-07-04T08:49:35.428Z,190
2017-07-04T08:50:15.935Z,160
2017-07-04T08:52:54.607Z,200
2017-07-04T08:53:35.166Z,195
2017-07-04T08:54:15.681Z,170
2017-07-04T08:54:56.199Z,165
2017-07-04T08:55:36.732Z,190
2017-07-04T08:56:17.262Z,190
2017-07-04T08:56:57.758Z,190
2017-07-04T08:57:38.277Z,190
2017-07-04T08:58:18.826Z,190
2017-07-04T08:58:59.309Z,185
2017-07-04T08:59:39.802Z,185
2017-07-04T09:00:20.304Z,180
2017-07-04T09:01:00.789Z,185
2017-07-04T09:01:41.286Z,180
2017-07-04T09:02:21.839Z,170
2017-07-04T09:03:02.349Z,165
2017-07-04T09:03:42.808Z,170
2017-07-04T09:04:23.326Z,175
2017-07-04T09:05:03.838Z,175
2017-07-04T09:05:44.359Z,175
2017-07-04T09:06:24.865Z,180
2017-07-04T09:07:05.386Z,155
2017-07-04T09:07:45.898Z,145
2017-07-04T09:08:26.427Z,140
2017-07-04T09:09:06.897Z,135
2017-07-04T09:09:47.412Z,130
2017-07-04T09:10:27.943Z,125
2017-07-04T09:11:08.461Z,120
2017-07-04T09:11:48.959Z,120
2017-07-04T09:12:29.463Z,120
2017-07-04T09:13:10.051Z,150
2017-07-04T09:13:50.525Z,150
2017-07-04T09:14:31.045Z,155
2017-07-04T09:15:11.571Z,160
2017-07-04T09:15:52.099Z,160
2017-07-04T09:16:32.643Z,160
2017-07-04T09:17:13.192Z,160
2017-07-04T09:17:53.715Z,160
2017-07-04T09:18:34.252Z,160
2017-07-04T09:19:14.792Z,155
2017-07-04T09:19:55.254Z,130
2017-07-04T09:20:35.799Z,155
2017-07-04T09:21:16.300Z,150
2017-07-04T09:21:56.852Z,150
2017-07-04T09:22:37.342Z,150
2017-07-04T09:23:17.820Z,150
2017-07-04T09:23:58.392Z,150
2017-07-04T09:24:39.020Z,155
2017-07-04T09:25:19.506Z,155
2017-07-04T09:26:00.059Z,155
2017-07-04T09:26:40.696Z,160
2017-07-04T09:28:53.990Z,175
2017-07-04T09:29:34.514Z,180
2017-07-04T09:30:15.042Z,180
2017-07-04T09:30:55.550Z,180
2017-07-04T09:31:36.098Z,180
2017-07-04T09:32:16.651Z,185
2017-07-04T09:32:57.129Z,185
2017-07-04T09:33:37.645Z,190
2017-07-04T09:34:18.186Z,195
2017-07-04T09:34:58.695Z,195
2017-07-04T09:35:39.217Z,200
2017-07-04T09:36:19.750Z,205
2017-07-04T09:37:00.292Z,210
2017-07-04T09:37:40.799Z,210
2017-07-04T09:38:21.366Z,210
2017-07-04T09:39:01.887Z,205
2017-07-04T09:39:42.445Z,205
2017-07-04T09:40:22.890Z,200
2017-07-04T09:41:03.437Z,195
2017-07-04T09:41:43.943Z,190
2017-07-04T09:42:24.428Z,180
2017-07-04T09:43:04.966Z,175
2017-07-04T09:43:45.481Z,165
2017-07-04T09:44:25.984Z,165
2017-07-04T09:45:06.638Z,160